Daruvar, Croatia

3:18 AM CEST on July 29, 2014 (GMT +0200)
Banja Luka International (LQBK) Elev 397 ft | 44.94 °N, 17.30 °E | Change Station

Current weather conditions updated 18 minutes ago

Clear
Clear
68 °F
Feels Like 68 °F
N
2
Wind Variable Wind from South

Today is forecast to be nearly the same temperature as yesterday.

Today
High -- | Low -- °F
--% Chance of Precip.
Yesterday
High -- | Low -- °F
Precip. -- in
5:30 AM 8:23 PM
Waxing Crescent, 4% visible
Pressure 29.83 in
Visibility -9999.0 miles
Clouds
Dew Point 66 °F
Humidity 94%
Rainfall 0.00 in
Snow Depth Not available.
UV Not available.
Pollen Not available.
Air Quality Not available.
Flu Activity Not available.
METAR LQBK 290100Z 17002KT CAVOK 20/19 Q1010 NOSIG

More Conditions Fewer Conditions

Pressure 29.83 in
Visibility -9999.0 miles
Clouds
Dew Point 66 °F
Humidity 94%
Rainfall 0.00 in
Snow Depth Not available.
UV Not available.
Pollen Not available.
Air Quality Not available.
Flu Activity Not available.
METAR LQBK 290100Z 17002KT CAVOK 20/19 Q1010 NOSIG

More Conditions Fewer Conditions

10-Day Weather Forecast

Almanac

Astronomy

Jul. 29, 2014 Rise Set
Actual Time 5:30 AM CEST 8:23 PM CEST
Civil Twilight 4:56 AM CEST 8:58 PM CEST
Nautical Twilight 4:11 AM CEST 9:42 PM CEST
Astronomical Twilight 3:19 AM CEST 10:33 PM CEST
Moon 8:00 AM CEST 9:15 PM CEST
Length of Visible Light 16h 01m
Length of Day
14h 52m
Tomorrow will be 2m 21s shorter.
Waxing Crescent, 4% of the Moon is Illuminated
Jul 28
Waxing Crescent
Aug 3
First Quarter
Aug 10
Full
Aug 17
Last Quarter
Aug 25
New

Yesterday's Extremes

Country Highs Country Lows

Community

WunderPhotos

Upload Photos

1,738,579 photos uploaded!

WunderBlogs® & News

Nearby

Snow Depth

Not available.

Earthquake Activity

City Distance Mag. Time & Date
No recent earthquake activity has been reported nearby.
Minimum magnitude displayed is 2.5.

Coastal Water Temperatures

Place Temperature
No Stations Reporting

Nearby Weather Stations

There are no personal weather stations in this area.